• Join FlightAware (Why Join?)
  • Login
  • US Flag 
09:00AM EST


 

Airport Tracker/Info


-or-


 

Live Flight TrackerFlight Track Log ✈ AWE1212 ✈ 07-May-2013 ✈ KIAH - KCLT

Flight Track Log - Related Links

Times and Time Zones

All times are in EDT time to prevent confusion due to time zone crossing. See the AWE1212 flight status page for this flight to view local times or setup timezone preferences in your user account.

Time Position Orientation Groundspeed Altitude Reporting Facility
EDT Latitude Longitude Course Direction KTS MPH feet Rate Location/Type
02:51PM 29.9569 -95.3369 133° Southeast 179 206 900  Level Houston Center
02:52PM 29.9214 -95.2931 133° Southeast 234 269 2,900 2,100 Climbing Houston Center
02:53PM 29.9078 -95.2708 125° Southeast 219 252 3,800 1,080 Climbing Houston Center
02:53PM 29.8775 -95.2283 129° Southeast 283 326 4,000 180 Climbing Houston Center
02:54PM 29.8742 -95.1950 97° East 260 299 4,000  Level Houston Center
02:54PM 29.8692 -95.1378 96° East 266 306 4,000  Level Houston Center
02:55PM 29.8683 -95.1083 92° East 266 306 4,000 1,680 Level Houston Center
02:55PM 29.8603 -95.0425 98° East 272 313 5,900 2,460 Climbing Houston Center
02:56PM 29.8597 -95.0214 92° East 270 311 6,600 2,580 Climbing Houston Center
02:57PM 29.8486 -94.9403 99° East 296 341 8,800 2,400 Climbing Houston Center
02:57PM 29.8497 -94.9281 84° East 290 334 9,100 1,800 Climbing Houston Center
02:58PM 29.8786 -94.8083 74° East 324 373 11,300 2,280 Climbing Houston Center
02:59PM 29.9044 -94.6928 76° East 366 421 13,900 2,220 Climbing Houston Center
03:00PM 29.9336 -94.5753 74° East 377 434 15,900 1,980 Climbing Houston Center
03:01PM 29.9628 -94.4436 76° East 398 458 18,000 1,920 Climbing Houston Center
03:02PM 29.9939 -94.3164 74° East 409 471 20,000 960 Climbing Houston Center
03:03PM 30.0119 -94.1808 81° East 426 490 20,000 180 Level Houston Center
03:04PM 30.0283 -94.0461 82° East 426 490 20,400 1,140 Climbing Houston Center
03:05PM 30.0494 -93.8803 82° East 436 502 22,400 1,200 Climbing Houston Center
03:06PM 30.0667 -93.7369 82° East 449 517 22,900 840 Climbing Houston Center
03:07PM 30.0839 -93.5953 82° East 452 520 24,200 1,200 Climbing Houston Center
03:08PM 30.0994 -93.4494 83° East 465 535 25,500 1,380 Climbing Houston Center
03:09PM 30.1219 -93.2706 82° East 475 547 27,100 1,440 Climbing Houston Center
03:10PM 30.1400 -93.1178 82° East 483 556 28,500 1,500 Climbing Houston Center
03:11PM 30.1681 -92.9683 78° East 480 552 30,200 1,380 Climbing Houston Center
03:12PM 30.1969 -92.8233 77° East 469 540 31,400 1,140 Climbing Houston Center
03:13PM 30.2253 -92.6742 78° East 475 547 32,600 1,260 Climbing Houston Center
03:14PM 30.2592 -92.5014 77° East 464 534 34,100 1,020 Climbing Houston Center
03:15PM 30.2856 -92.3589 78° East 457 526 34,800 420 Climbing Houston Center
03:17PM 30.3108 -92.2281 77° East 459 528 35,000 60 Climbing Houston Center
03:18PM 30.3442 -92.0550 77° East 461 531 35,000  Level Houston Center
03:19PM 30.3714 -91.9100 78° East 464 534 35,000  Level Houston Center
03:20PM 30.3986 -91.7658 78° East 461 531 35,000  Level Houston Center
03:21PM 30.4269 -91.6175 77° East 464 534 35,000  Level Houston Center
03:22PM 30.4528 -91.4708 78° East 466 536 35,000  Level Houston Center
03:23PM 30.4806 -91.3236 78° East 467 537 35,000  Level Houston Center
03:24PM 30.5189 -91.1494 76° East 465 535 35,000  Level Houston Center
03:25PM 30.5522 -91.0039 75° East 467 537 35,000  Level Houston Center
03:26PM 30.5856 -90.8569 75° East 469 540 35,000  Level Houston Center
03:27PM 30.6192 -90.7092 75° East 473 544 35,000  Level Houston Center
03:28PM 30.6514 -90.5606 76° East 474 545 35,000  Level Houston Center
03:29PM 30.6853 -90.4131 75° East 472 543 35,000  Level Houston Center
03:30PM 30.7250 -90.2339 75° East 475 547 35,000  Level Houston Center
03:31PM 30.7583 -90.0850 75° East 475 547 35,000  Level Houston Center
03:32PM 30.7917 -89.9358 75° East 474 545 35,000  Level Houston Center
03:33PM 30.8228 -89.7867 76° East 472 543 35,000  Level Houston Center
03:34PM 30.8553 -89.6389 76° East 469 540 35,000  Level Houston Center
03:35PM 30.8867 -89.4931 76° East 464 534 35,000  Level Houston Center
03:36PM 30.9172 -89.3461 76° East 465 535 35,000  Level Houston Center
03:37PM 30.9553 -89.1706 76° East 465 535 35,000  Level Houston Center
03:38PM 30.9850 -89.0239 77° East 465 535 35,000  Level Houston Center
03:39PM 31.0133 -88.8831 77° East 465 535 35,000  Level Houston Center
03:40PM 31.0442 -88.7378 76° East 463 533 35,000  Level Houston Center
03:41PM 31.0758 -88.5858 76° East 462 532 35,000  Level Houston Center
03:42PM 31.1189 -88.4458 70° East 455 524 35,000  Level Houston Center
03:43PM 31.1792 -88.3464 55° Northeast 456 525 35,000  Level Atlanta Center
03:44PM 31.2439 -88.2183 59° Northeast 434 499 35,000  Level Atlanta Center
03:45PM 31.3108 -88.0928 58° Northeast 440 506 35,000  Level Atlanta Center
03:46PM 31.3342 -88.0411 62° Northeast 457 526 35,000  Level Houston Center
03:46PM 31.3794 -87.9669 54° Northeast 445 512 35,000  Level Atlanta Center
03:47PM 31.4442 -87.8383 59° Northeast 445 512 35,000  Level Atlanta Center
03:48PM 31.5106 -87.7119 58° Northeast 445 512 35,000  Level Atlanta Center
03:49PM 31.5789 -87.5856 58° Northeast 450 518 35,000  Level Atlanta Center
03:50PM 31.6431 -87.4586 59° Northeast 450 518 35,000  Level Atlanta Center
03:51PM 31.7069 -87.3342 59° Northeast 450 518 35,000  Level Atlanta Center
03:52PM 31.7619 -87.2239 60° Northeast 442 509 35,000  Level Atlanta Center
03:53PM 31.8256 -87.0967 59° Northeast 437 503 35,000  Level Atlanta Center
03:54PM 31.8914 -86.9692 59° Northeast 442 509 35,000  Level Atlanta Center
03:55PM 31.9569 -86.8417 59° Northeast 442 509 35,000  Level Atlanta Center
03:56PM 32.0353 -86.7019 56° Northeast 447 514 35,000  Level Atlanta Center
03:57PM 32.1006 -86.5739 59° Northeast 447 514 35,000  Level Atlanta Center
03:58PM 32.1658 -86.4408 60° Northeast 452 520 35,000  Level Atlanta Center
03:59PM 32.2306 -86.3200 58° Northeast 452 520 35,000  Level Atlanta Center
04:00PM 32.3078 -86.2161 49° Northeast 452 520 35,000  Level Atlanta Center
04:01PM 32.3725 -86.0875 59° Northeast 452 520 35,000  Level Atlanta Center
04:02PM 32.4436 -85.9464 59° Northeast 452 520 35,000  Level Atlanta Center
04:03PM 32.5125 -85.8122 59° Northeast 452 520 35,000  Level Atlanta Center
04:04PM 32.5789 -85.6781 60° Northeast 465 535 35,000  Level Atlanta Center
04:05PM 32.6453 -85.5461 59° Northeast 465 535 35,000  Level Atlanta Center
04:06PM 32.7094 -85.4164 60° Northeast 465 535 35,000  Level Atlanta Center
04:07PM 32.7714 -85.2864 60° Northeast 460 529 35,000  Level Atlanta Center
04:08PM 32.8394 -85.1564 58° Northeast 460 529 35,000  Level Atlanta Center
04:09PM 32.9053 -85.0286 58° Northeast 455 524 35,000  Level Atlanta Center
04:10PM 32.9606 -84.9078 61° Northeast 460 529 35,000  Level Atlanta Center
04:11PM 33.0239 -84.7747 60° Northeast 465 535 35,000  Level Atlanta Center
04:12PM 33.0894 -84.6414 60° Northeast 465 535 35,000  Level Atlanta Center
04:13PM 33.1547 -84.5078 60° Northeast 460 529 35,000  Level Atlanta Center
04:14PM 33.2197 -84.3717 60° Northeast 465 535 35,000  Level Atlanta Center
04:15PM 33.2828 -84.2375 61° Northeast 465 535 35,000  Level Atlanta Center
04:16PM 33.3475 -84.1033 60° Northeast 465 535 35,000  Level Atlanta Center
04:17PM 33.4103 -83.9667 61° Northeast 465 535 35,000  Level Atlanta Center
04:18PM 33.4725 -83.8347 60° Northeast 465 535 35,000  Level Atlanta Center
04:19PM 33.5369 -83.7025 60° Northeast 460 529 35,000 -60 Level Atlanta Center
04:20PM 33.6056 -83.5575 60° Northeast 460 529 34,900 -540 Descending Atlanta Center
04:21PM 33.6694 -83.4222 60° Northeast 460 529 34,000 -480 Descending Atlanta Center
04:22PM 33.7336 -83.2869 60° Northeast 465 535 34,000 -240 Level Atlanta Center
04:23PM 33.7972 -83.1489 61° Northeast 465 535 33,600 -720 Descending Atlanta Center
04:24PM 33.8608 -83.0156 60° Northeast 470 541 32,600 -960 Descending Atlanta Center
04:25PM 33.9244 -82.8747 61° Northeast 465 535 31,700 -960 Descending Atlanta Center
04:26PM 33.9836 -82.7411 62° Northeast 458 527 30,700 -960 Descending Atlanta Center
04:27PM 34.0489 -82.6122 59° Northeast 452 520 29,800 -900 Descending Atlanta Center
04:28PM 34.1206 -82.5056 51° Northeast 446 513 29,000 -900 Descending Atlanta Center
04:29PM 34.1964 -82.3886 52° Northeast 446 513 28,000 -1,200 Descending Atlanta Center
04:30PM 34.2719 -82.2692 53° Northeast 446 513 26,700 -1,860 Descending Atlanta Center
04:31PM 34.3453 -82.1544 52° Northeast 441 507 24,300 -2,400 Descending Atlanta Center
04:32PM 34.4125 -82.0472 53° Northeast 428 493 21,900 -2,340 Descending Atlanta Center
04:33PM 34.4775 -81.9422 53° Northeast 398 458 19,700 -2,220 Descending Atlanta Center
04:34PM 34.5406 -81.8475 51° Northeast 376 433 17,500 -2,160 Descending Atlanta Center
04:35PM 34.6014 -81.7500 53° Northeast 371 427 15,400 -2,160 Descending Atlanta Center
04:36PM 34.6622 -81.6575 51° Northeast 355 409 13,200 -1,860 Descending Atlanta Center
04:37PM 34.7069 -81.5878 52° Northeast 344 396 12,300 -1,140 Descending Atlanta Center
04:37PM 34.7211 -81.5647 53° Northeast 350 403 12,100 -360 Descending Atlanta Center
04:38PM 34.7597 -81.5131 48° Northeast 305 351 12,000 -120 Descending Atlanta Center
04:38PM 34.7758 -81.4897 50° Northeast 317 365 12,000  Level Atlanta Center
04:39PM 34.8058 -81.4306 58° Northeast 294 338 12,000  Level Atlanta Center
04:39PM 34.8158 -81.4025 67° East 291 335 12,000  Level Atlanta Center
04:40PM 34.8733 -81.3628 30° Northeast 299 344 12,000  Level Atlanta Center
04:40PM 34.8875 -81.3469 43° Northeast 283 326 12,000 60 Level Atlanta Center
04:41PM 34.9322 -81.2900 46° Northeast 304 350 12,100  Climbing Atlanta Center
04:41PM 34.9506 -81.2664 47° Northeast 283 326 12,000 -900 Descending Atlanta Center
04:42PM 34.9908 -81.2094 49° Northeast 304 350 11,100 -1,380 Descending Atlanta Center
04:43PM 35.0536 -81.1311 46° Northeast 297 342 9,600 -1,080 Descending Atlanta Center
04:44PM 35.1064 -81.0708 43° Northeast 282 325 9,100 -540 Descending Atlanta Center
04:44PM 35.1231 -81.0628 22° Northeast 285 328 9,000 -300 Descending Atlanta Center
04:45PM 35.1900 -81.0703 355° North 279 321 8,800 -1,020 Descending Atlanta Center
04:46PM 35.2653 -81.0753 357° North 273 314 7,200 -1,140 Descending Atlanta Center
04:47PM 35.3300 -81.0833 354° North 216 249 6,600 -1,020 Descending Atlanta Center
04:48PM 35.3864 -81.0864 357° North 208 239 5,300 -1,380 Descending Atlanta Center
04:49PM 35.4253 -81.0467 40° Northeast 224 258 4,000 -1,020 Descending Atlanta Center
04:50PM 35.3906 -80.9944 129° Southeast 199 229 3,300 -540 Descending Atlanta Center
04:51PM 35.3464 -80.9783 163° South 150 173 3,000 -480 Descending Atlanta Center
04:52PM 35.3025 -80.9772 179° South 145 167 2,300 -780 Descending Atlanta Center
04:53PM 35.2628 -80.9736 176° South 146 168 1,500 -900 Descending Atlanta Center
04:55PM 35.2137 -80.9491 158° South  Level Estimated
05:02PM 35.2137 -80.9491 158° South  Level Estimated